Time;durP1;ratioP1;P1;durP2;ratioP2;P2;SDS_P1;SDS_P2;PMS_P1;PMS_P2;Temp;Humidity;BMP_temperature;BMP_pressure;BME280_temperature;BME280_humidity;BME280_pressure;Samples;Min_cycle;Max_cycle;Signal;HPM_P1;HPM_P2
2021/03/04 00:02:22;;;;;;;57.45;23.65;;;3.50;93.40;;;;;;5027514;28;20038;-76
2021/03/04 00:04:48;;;;;;;78.70;25.98;;;3.50;93.20;;;;;;5027602;28;20041;-76
2021/03/04 00:07:14;;;;;;;76.38;27.70;;;3.50;93.30;;;;;;5027302;28;20037;-76
2021/03/04 00:09:40;;;;;;;83.97;28.83;;;3.60;93.30;;;;;;5028859;28;20041;-76
2021/03/04 00:12:06;;;;;;;82.82;27.35;;;3.50;93.40;;;;;;5010763;28;20041;-76
2021/03/04 00:14:32;;;;;;;97.78;28.58;;;3.60;93.30;;;;;;5027365;28;20427;-77
2021/03/04 00:16:58;;;;;;;94.38;30.83;;;3.60;93.50;;;;;;5027502;28;20041;-77
2021/03/04 00:19:24;;;;;;;71.32;26.33;;;3.60;93.20;;;;;;5007153;28;20042;-76
2021/03/04 00:21:50;;;;;;;71.97;25.27;;;3.60;93.40;;;;;;5008446;28;20046;-76
2021/03/04 00:24:16;;;;;;;67.35;23.92;;;3.60;93.30;;;;;;5008280;28;20052;-76
2021/03/04 00:26:43;;;;;;;70.47;25.63;;;3.60;93.40;;;;;;5008372;28;20057;-76
2021/03/04 00:29:11;;;;;;;54.20;20.77;;;3.60;93.40;;;;;;5006959;28;20757;-76
2021/03/04 00:31:36;;;;;;;55.35;21.65;;;3.50;93.20;;;;;;5027990;28;20037;-75
2021/03/04 00:34:02;;;;;;;57.15;23.08;;;3.50;93.20;;;;;;5027155;28;20427;-76
2021/03/04 00:36:28;;;;;;;52.88;21.70;;;3.50;93.20;;;;;;5027997;28;20064;-75
2021/03/04 00:38:54;;;;;;;70.95;24.20;;;3.50;93.20;;;;;;5005549;28;20041;-75
2021/03/04 00:41:20;;;;;;;67.15;22.05;;;3.60;93.30;;;;;;5026557;28;20123;-75
2021/03/04 00:43:45;;;;;;;67.97;25.58;;;3.60;93.20;;;;;;5026985;28;20423;-76
2021/03/04 00:46:11;;;;;;;61.72;23.30;;;3.50;93.40;;;;;;5027549;28;20045;-76
2021/03/04 00:48:37;;;;;;;51.85;22.13;;;3.60;93.40;;;;;;5028118;28;20080;-76
2021/03/04 00:51:03;;;;;;;63.85;22.10;;;3.60;93.30;;;;;;5027881;28;20119;-76
2021/03/04 00:53:29;;;;;;;58.30;19.80;;;3.50;93.40;;;;;;5028026;28;20049;-76
2021/03/04 00:55:55;;;;;;;53.03;18.83;;;3.60;93.60;;;;;;5026977;28;20052;-76
2021/03/04 00:58:21;;;;;;;51.85;18.73;;;3.60;93.40;;;;;;5010305;28;20037;-76
2021/03/04 01:00:46;;;;;;;33.25;14.23;;;3.50;93.60;;;;;;5028163;28;20188;-76
2021/03/04 01:03:13;;;;;;;43.70;16.33;;;3.50;93.50;;;;;;5027551;28;20096;-76
2021/03/04 01:05:39;;;;;;;34.42;13.63;;;3.50;93.30;;;;;;5028479;28;20072;-76
2021/03/04 01:08:05;;;;;;;29.73;13.68;;;3.50;93.40;;;;;;5027687;28;20183;-75
2021/03/04 01:10:40;;;;;;;34.90;14.10;;;3.50;93.60;;;;;;5026864;28;20056;-76
2021/03/04 01:13:07;;;;;;;29.15;12.13;;;3.50;93.30;;;;;;5027714;28;20065;-76
2021/03/04 01:15:34;;;;;;;37.70;13.07;;;3.40;93.30;;;;;;5028544;28;20049;-76
2021/03/04 01:18:02;;;;;;;27.48;12.95;;;3.40;93.20;;;;;;5031998;28;20257;-76
2021/03/04 01:20:28;;;;;;;24.98;11.07;;;3.50;93.60;;;;;;5016314;28;20053;-76
2021/03/04 01:22:55;;;;;;;26.88;10.98;;;3.40;93.30;;;;;;5025771;28;20335;-76
2021/03/04 01:25:21;;;;;;;32.17;10.95;;;3.40;93.20;;;;;;5030721;28;20128;-76
2021/03/04 01:27:49;;;;;;;26.02;12.02;;;3.30;93.20;;;;;;5031109;28;20053;-76
2021/03/04 01:30:15;;;;;;;28.50;13.13;;;3.30;93.20;;;;;;5029413;28;20111;-76
2021/03/04 01:32:42;;;;;;;28.17;10.43;;;3.30;93.20;;;;;;5031583;28;20045;-77
2021/03/04 01:35:09;;;;;;;28.73;11.63;;;3.30;93.30;;;;;;5030662;28;20048;-76
2021/03/04 01:37:36;;;;;;;24.50;9.75;;;3.30;93.30;;;;;;5030160;28;20060;-76
2021/03/04 01:40:07;;;;;;;25.75;11.25;;;3.30;93.30;;;;;;5030143;28;20325;-76
2021/03/04 01:42:33;;;;;;;28.23;11.43;;;3.30;93.50;;;;;;5032039;28;20079;-76
2021/03/04 01:44:59;;;;;;;27.08;11.73;;;3.30;93.40;;;;;;5031244;28;20092;-76
2021/03/04 01:47:25;;;;;;;36.30;11.48;;;3.30;93.40;;;;;;5030514;28;20488;-75
2021/03/04 01:49:50;;;;;;;29.33;10.93;;;3.30;93.30;;;;;;5031036;28;20094;-76
2021/03/04 01:52:17;;;;;;;30.08;12.02;;;3.30;93.30;;;;;;5013216;28;20128;-76
2021/03/04 01:54:43;;;;;;;26.25;11.82;;;3.30;93.40;;;;;;5031154;28;20037;-76
2021/03/04 01:57:11;;;;;;;28.80;12.43;;;3.30;93.30;;;;;;5027161;28;20435;-76
2021/03/04 01:59:36;;;;;;;29.63;10.38;;;3.30;93.30;;;;;;5029798;28;20045;-76
2021/03/04 02:02:05;;;;;;;22.02;9.05;;;3.30;93.30;;;;;;5030950;28;20805;-76
2021/03/04 02:04:31;;;;;;;21.83;9.48;;;3.30;93.30;;;;;;5029491;28;20049;-77
2021/03/04 02:07:08;;;;;;;23.27;9.05;;;3.30;93.40;;;;;;5030649;28;20042;-77
2021/03/04 02:09:37;;;;;;;22.55;9.18;;;3.20;93.30;;;;;;5030717;28;20052;-76
2021/03/04 02:12:10;;;;;;;24.95;9.88;;;3.20;93.40;;;;;;5029930;28;20041;-76
2021/03/04 02:14:46;;;;;;;29.85;11.32;;;3.20;93.20;;;;;;5030312;28;20411;-77
2021/03/04 02:17:14;;;;;;;30.02;12.77;;;3.30;93.20;;;;;;5030089;28;20042;-76
2021/03/04 02:19:50;;;;;;;27.08;10.25;;;3.20;93.50;;;;;;5030323;28;20045;-77
2021/03/04 02:22:27;;;;;;;27.00;12.07;;;3.20;93.30;;;;;;5030163;28;20407;-77
2021/03/04 02:25:03;;;;;;;28.73;11.65;;;3.20;93.50;;;;;;5030509;28;20049;-77
2021/03/04 02:27:33;;;;;;;34.72;12.35;;;3.10;93.50;;;;;;5028747;28;20049;-77
2021/03/04 02:30:11;;;;;;;26.85;12.35;;;3.20;93.50;;;;;;5030483;28;20167;-77
2021/03/04 02:32:44;;;;;;;34.30;12.60;;;3.10;93.40;;;;;;5030604;28;20168;-77
2021/03/04 02:35:28;;;;;;;26.33;12.32;;;3.10;93.40;;;;;;5029872;28;20052;-76
2021/03/04 02:38:01;;;;;;;34.22;12.38;;;3.20;93.60;;;;;;5030947;28;20041;-77
2021/03/04 02:40:30;;;;;;;28.55;12.10;;;3.10;93.30;;;;;;5004305;28;20108;-76
2021/03/04 02:42:57;;;;;;;33.15;13.48;;;3.20;93.20;;;;;;5010426;28;20494;-76
2021/03/04 02:45:25;;;;;;;34.15;13.27;;;3.20;93.30;;;;;;5009667;28;20577;-77
2021/03/04 02:47:52;;;;;;;37.67;13.95;;;3.10;93.30;;;;;;5023285;28;20430;-77
2021/03/04 02:50:18;;;;;;;27.58;13.00;;;3.10;93.10;;;;;;5029522;28;20041;-77
2021/03/04 02:52:46;;;;;;;36.38;13.52;;;3.10;93.40;;;;;;5012811;28;20041;-77
2021/03/04 02:55:12;;;;;;;28.00;11.30;;;3.10;93.50;;;;;;5028786;28;20402;-77
2021/03/04 02:57:44;;;;;;;25.90;11.02;;;3.10;93.60;;;;;;5029743;28;20524;-77
2021/03/04 03:00:14;;;;;;;27.80;10.55;;;3.10;93.70;;;;;;5028937;28;20354;-76
2021/03/04 03:02:43;;;;;;;28.35;10.73;;;3.10;93.50;;;;;;5030164;28;20037;-77
2021/03/04 03:05:13;;;;;;;26.17;10.60;;;3.10;93.50;;;;;;5028053;28;20139;-76
2021/03/04 03:07:43;;;;;;;23.23;9.70;;;3.10;93.40;;;;;;5029680;28;20477;-77
2021/03/04 03:10:12;;;;;;;25.65;8.98;;;3.10;93.40;;;;;;5028789;28;20124;-77
2021/03/04 03:12:44;;;;;;;22.80;8.57;;;3.10;93.50;;;;;;5029167;28;20517;-77
2021/03/04 03:15:13;;;;;;;15.60;7.05;;;3.10;93.30;;;;;;5027202;28;20712;-77
2021/03/04 03:17:41;;;;;;;19.00;7.38;;;3.10;93.40;;;;;;5029209;28;20055;-77
2021/03/04 03:20:12;;;;;;;16.02;7.82;;;3.10;93.30;;;;;;5028876;28;20852;-77
2021/03/04 03:22:40;;;;;;;18.77;6.63;;;3.10;93.30;;;;;;5029200;28;20286;-77
2021/03/04 03:25:07;;;;;;;21.38;9.05;;;3.10;93.30;;;;;;5029056;28;20053;-76
2021/03/04 03:27:34;;;;;;;21.00;9.50;;;3.10;93.40;;;;;;5029003;28;20193;-77
2021/03/04 03:30:03;;;;;;;19.25;8.20;;;3.10;93.30;;;;;;5027797;28;20045;-76
2021/03/04 03:32:31;;;;;;;27.25;9.43;;;3.00;93.20;;;;;;5028254;28;20123;-76
2021/03/04 03:34:59;;;;;;;21.13;9.60;;;3.10;93.20;;;;;;5029050;28;20378;-76
2021/03/04 03:37:25;;;;;;;24.75;9.73;;;3.10;93.10;;;;;;5027550;28;20045;-76
2021/03/04 03:39:52;;;;;;;23.95;10.13;;;3.10;93.00;;;;;;5027972;28;20120;-76
2021/03/04 03:42:20;;;;;;;22.15;9.98;;;3.20;93.00;;;;;;5028329;28;20030;-77
2021/03/04 03:44:47;;;;;;;20.52;9.38;;;3.20;93.00;;;;;;5029309;28;20041;-76
2021/03/04 03:47:14;;;;;;;17.63;8.38;;;3.20;93.10;;;;;;5028704;28;20134;-76
2021/03/04 03:49:41;;;;;;;17.98;7.65;;;3.20;93.10;;;;;;5028734;28;20133;-76
2021/03/04 03:52:08;;;;;;;23.30;10.05;;;3.20;93.10;;;;;;5011058;28;20444;-76
2021/03/04 03:54:35;;;;;;;16.17;7.07;;;3.10;93.10;;;;;;5011524;28;20044;-76
2021/03/04 03:57:03;;;;;;;17.40;8.27;;;3.10;93.10;;;;;;5011435;28;20041;-77
2021/03/04 03:59:31;;;;;;;19.65;8.50;;;3.20;93.10;;;;;;5028653;28;20041;-76
2021/03/04 04:01:58;;;;;;;19.27;9.65;;;3.20;93.10;;;;;;5028400;28;20060;-76
2021/03/04 04:04:25;;;;;;;20.50;7.88;;;3.20;93.10;;;;;;5027178;28;20049;-77
2021/03/04 04:06:53;;;;;;;20.35;8.43;;;3.20;93.10;;;;;;5011316;28;20045;-76
2021/03/04 04:09:20;;;;;;;16.35;8.02;;;3.20;93.30;;;;;;5027747;28;20037;-76
2021/03/04 04:11:46;;;;;;;15.00;6.90;;;3.20;93.10;;;;;;5028617;28;20044;-76
2021/03/04 04:14:12;;;;;;;17.05;7.88;;;3.20;93.10;;;;;;5026502;28;20382;-77
2021/03/04 04:16:37;;;;;;;13.95;6.38;;;3.20;93.10;;;;;;5010735;28;20136;-76
2021/03/04 04:19:03;;;;;;;17.45;7.95;;;3.20;93.00;;;;;;5026746;28;20128;-76
2021/03/04 04:21:30;;;;;;;13.60;6.57;;;3.30;93.10;;;;;;5028557;28;20084;-76
2021/03/04 04:23:56;;;;;;;15.75;7.13;;;3.30;93.10;;;;;;5028403;28;20049;-76
2021/03/04 04:26:22;;;;;;;18.05;7.85;;;3.30;93.20;;;;;;5026748;28;20644;-76
2021/03/04 04:28:48;;;;;;;18.88;8.43;;;3.30;93.10;;;;;;5028155;28;20132;-76
2021/03/04 04:31:15;;;;;;;21.63;8.68;;;3.30;93.10;;;;;;5026592;28;20052;-76
2021/03/04 04:33:41;;;;;;;14.48;6.47;;;3.30;93.10;;;;;;5028174;28;20053;-76
2021/03/04 04:36:09;;;;;;;18.90;7.50;;;3.30;93.20;;;;;;5027082;28;20161;-76
2021/03/04 04:38:35;;;;;;;19.77;8.02;;;3.30;93.30;;;;;;5028312;28;20053;-77
2021/03/04 04:41:01;;;;;;;15.40;6.68;;;3.30;93.20;;;;;;5027023;28;20335;-76
2021/03/04 04:43:27;;;;;;;14.75;7.40;;;3.30;93.20;;;;;;5028128;28;20049;-77
2021/03/04 04:45:53;;;;;;;15.80;7.00;;;3.30;93.10;;;;;;5027292;28;20132;-77
2021/03/04 04:48:18;;;;;;;16.83;8.45;;;3.30;93.10;;;;;;5026747;28;20177;-77
2021/03/04 04:50:44;;;;;;;15.50;7.30;;;3.30;93.10;;;;;;5011838;28;20044;-77
2021/03/04 04:53:10;;;;;;;15.23;7.45;;;3.30;93.10;;;;;;5030530;28;20745;-76
2021/03/04 04:55:37;;;;;;;14.70;7.00;;;3.30;93.10;;;;;;5031215;28;20128;-77
2021/03/04 04:58:03;;;;;;;15.60;6.55;;;3.30;93.10;;;;;;5032004;28;20466;-77
2021/03/04 05:00:32;;;;;;;15.35;9.30;;;3.30;93.10;;;;;;5030945;28;20041;-77
2021/03/04 05:02:58;;;;;;;17.15;7.55;;;3.30;93.00;;;;;;5032085;28;20041;-77
2021/03/04 05:05:25;;;;;;;12.48;7.25;;;3.30;93.10;;;;;;5030205;28;20125;-77
2021/03/04 05:07:52;;;;;;;13.75;6.70;;;3.30;93.10;;;;;;5031925;28;20041;-77
2021/03/04 05:10:18;;;;;;;15.93;6.85;;;3.30;93.10;;;;;;5030232;28;20323;-76
2021/03/04 05:12:43;;;;;;;17.80;8.73;;;3.30;93.00;;;;;;5030974;28;20037;-77
2021/03/04 05:15:11;;;;;;;13.95;6.07;;;3.30;93.40;;;;;;5030908;28;20048;-77
2021/03/04 05:17:38;;;;;;;15.93;7.47;;;3.30;93.00;;;;;;5013790;28;20133;-77
2021/03/04 05:20:05;;;;;;;15.82;7.22;;;3.30;93.00;;;;;;5031143;28;20116;-77
2021/03/04 05:22:32;;;;;;;15.82;8.18;;;3.30;93.00;;;;;;5030191;28;20045;-77
2021/03/04 05:24:58;;;;;;;17.08;7.43;;;3.30;93.00;;;;;;5014049;28;20045;-77
2021/03/04 05:27:26;;;;;;;14.95;6.88;;;3.30;93.00;;;;;;5030812;28;20041;-77
2021/03/04 05:29:54;;;;;;;17.60;7.03;;;3.40;93.10;;;;;;5013988;28;20057;-76
2021/03/04 05:32:20;;;;;;;14.30;7.47;;;3.30;93.00;;;;;;5030822;28;20037;-77
2021/03/04 05:34:46;;;;;;;12.35;7.13;;;3.30;93.10;;;;;;5013370;28;20138;-76
2021/03/04 05:37:12;;;;;;;21.02;7.85;;;3.30;93.00;;;;;;5029851;28;20049;-76
2021/03/04 05:39:38;;;;;;;15.35;7.40;;;3.30;93.00;;;;;;5029959;28;20037;-77
2021/03/04 05:42:09;;;;;;;14.52;7.47;;;3.40;93.20;;;;;;5030450;28;20049;-76
2021/03/04 05:44:36;;;;;;;18.30;8.30;;;3.30;93.10;;;;;;5031256;28;20054;-76
2021/03/04 05:47:05;;;;;;;11.85;6.05;;;3.30;93.10;;;;;;5031212;28;20046;-77
2021/03/04 05:49:36;;;;;;;20.23;7.68;;;3.30;93.10;;;;;;5029663;28;20033;-76
2021/03/04 05:52:07;;;;;;;18.70;8.00;;;3.40;93.10;;;;;;5031942;28;20179;-77
2021/03/04 05:54:36;;;;;;;19.60;8.27;;;3.30;93.10;;;;;;5030340;28;20045;-77
2021/03/04 05:57:04;;;;;;;14.13;6.28;;;3.30;93.20;;;;;;5030770;28;20038;-77
2021/03/04 05:59:30;;;;;;;13.20;6.20;;;3.30;93.10;;;;;;5030667;28;20049;-76
2021/03/04 06:01:58;;;;;;;16.70;6.85;;;3.30;93.10;;;;;;5029324;28;20103;-77
2021/03/04 06:04:24;;;;;;;17.00;6.97;;;3.30;93.10;;;;;;5030404;28;20147;-77
2021/03/04 06:06:50;;;;;;;13.20;6.80;;;3.30;93.20;;;;;;5013830;28;20052;-76
2021/03/04 06:09:17;;;;;;;15.85;7.75;;;3.30;93.10;;;;;;5018227;28;20076;-77
2021/03/04 06:11:42;;;;;;;15.45;7.50;;;3.30;93.10;;;;;;5022926;28;20068;-77
2021/03/04 06:14:11;;;;;;;12.73;6.03;;;3.30;93.10;;;;;;5029507;28;20128;-77
2021/03/04 06:16:37;;;;;;;11.80;6.82;;;3.40;93.10;;;;;;5030480;28;20045;-77
2021/03/04 06:19:03;;;;;;;10.27;5.38;;;3.40;93.10;;;;;;5029004;28;20048;-76
2021/03/04 06:21:33;;;;;;;12.25;6.15;;;3.40;93.10;;;;;;5030677;28;20211;-77
2021/03/04 06:23:59;;;;;;;12.48;5.32;;;3.40;93.10;;;;;;5029142;28;20148;-76
2021/03/04 06:26:35;;;;;;;13.45;5.90;;;3.40;93.10;;;;;;5028242;28;20057;-76
2021/03/04 06:29:17;;;;;;;13.63;5.28;;;3.40;93.10;;;;;;5028831;28;20053;-76
2021/03/04 06:31:44;;;;;;;16.65;5.85;;;3.40;93.20;;;;;;5014609;28;20041;-76
2021/03/04 06:34:20;;;;;;;11.90;4.80;;;3.40;93.40;;;;;;5024395;28;20136;-76
2021/03/04 06:37:18;;;;;;;9.85;5.40;;;3.40;93.20;;;;;;5029448;28;20152;-77
2021/03/04 06:39:46;;;;;;;16.02;5.82;;;3.40;93.20;;;;;;5011812;28;20046;-76
2021/03/04 06:42:13;;;;;;;11.57;5.72;;;3.40;93.30;;;;;;5029489;28;20037;-77
2021/03/04 06:44:50;;;;;;;14.88;5.43;;;3.40;93.30;;;;;;5028636;28;20049;-76
2021/03/04 06:47:24;;;;;;;10.98;4.70;;;3.50;93.20;;;;;;5029286;28;20041;-77
2021/03/04 06:49:52;;;;;;;12.60;5.50;;;3.50;93.30;;;;;;5029127;28;20383;-76
2021/03/04 06:52:32;;;;;;;10.35;5.32;;;3.50;93.30;;;;;;5028127;28;20041;-77
2021/03/04 06:55:12;;;;;;;11.70;5.45;;;3.50;93.20;;;;;;5028226;28;20121;-76
2021/03/04 06:57:38;;;;;;;10.93;5.72;;;3.50;93.20;;;;;;5028659;28;20048;-76
2021/03/04 07:00:06;;;;;;;11.00;4.20;;;3.60;93.30;;;;;;5028933;28;20038;-76
2021/03/04 07:02:36;;;;;;;7.82;4.32;;;3.60;93.30;;;;;;5029830;28;20119;-76
2021/03/04 07:05:03;;;;;;;11.90;4.47;;;3.60;93.40;;;;;;5028681;28;20045;-76
2021/03/04 07:07:29;;;;;;;8.00;3.38;;;3.60;93.50;;;;;;5028390;28;20071;-76
2021/03/04 07:09:59;;;;;;;6.40;3.53;;;3.60;93.40;;;;;;5028232;28;20041;-76
2021/03/04 07:12:25;;;;;;;8.60;4.50;;;3.70;93.40;;;;;;5028443;28;20068;-77
2021/03/04 07:14:53;;;;;;;8.35;3.33;;;3.70;93.40;;;;;;5028107;28;20041;-76
2021/03/04 07:17:26;;;;;;;12.70;3.92;;;3.70;93.40;;;;;;5028840;28;20042;-76
2021/03/04 07:20:00;;;;;;;10.05;4.40;;;3.70;93.30;;;;;;5028210;28;20052;-76
2021/03/04 07:22:27;;;;;;;9.93;3.70;;;3.80;93.30;;;;;;5028993;28;20041;-76
2021/03/04 07:24:53;;;;;;;6.55;3.55;;;3.80;93.40;;;;;;5029287;28;20053;-76
2021/03/04 07:27:19;;;;;;;7.35;4.40;;;3.80;93.30;;;;;;5028276;28;20411;-76
2021/03/04 07:29:46;;;;;;;9.23;5.03;;;3.80;93.30;;;;;;5028820;28;20055;-76
2021/03/04 07:32:13;;;;;;;8.52;3.97;;;3.80;93.40;;;;;;5028270;28;20059;-77
2021/03/04 07:34:41;;;;;;;11.50;3.88;;;3.80;93.40;;;;;;5027854;28;20787;-76
2021/03/04 07:37:08;;;;;;;6.15;3.38;;;3.90;93.40;;;;;;5028548;28;20052;-76
2021/03/04 07:39:39;;;;;;;5.85;3.28;;;3.80;93.30;;;;;;5014735;28;20098;-77
2021/03/04 07:42:19;;;;;;;7.50;4.22;;;3.90;93.30;;;;;;5027609;28;20126;-77
2021/03/04 07:44:48;;;;;;;6.28;3.05;;;3.90;93.30;;;;;;5027841;28;20053;-77
2021/03/04 07:47:14;;;;;;;6.65;3.13;;;4.00;93.30;;;;;;5027433;28;20041;-76
2021/03/04 07:49:43;;;;;;;13.02;3.50;;;4.00;93.50;;;;;;5011217;28;20041;-77
2021/03/04 07:52:13;;;;;;;6.75;3.35;;;4.00;93.40;;;;;;5028038;28;20044;-77
2021/03/04 07:54:44;;;;;;;6.90;4.28;;;4.00;93.30;;;;;;5027683;28;20048;-77
2021/03/04 07:57:12;;;;;;;5.82;3.35;;;4.00;93.40;;;;;;5026686;28;20038;-76
2021/03/04 07:59:56;;;;;;;7.65;3.25;;;4.10;93.30;;;;;;5028587;28;20103;-77
2021/03/04 08:02:27;;;;;;;8.32;2.90;;;4.10;93.40;;;;;;5016171;28;20060;-76
2021/03/04 08:05:12;;;;;;;9.48;3.75;;;4.10;93.40;;;;;;5028728;28;20041;-76
2021/03/04 08:07:43;;;;;;;4.95;2.72;;;4.10;93.40;;;;;;5027487;28;20064;-77
2021/03/04 08:10:11;;;;;;;5.18;2.63;;;4.10;93.40;;;;;;5027589;28;20054;-77
2021/03/04 08:13:13;;;;;;;9.68;3.08;;;4.10;93.30;;;;;;5028427;28;20045;-77
2021/03/04 08:15:40;;;;;;;5.43;3.13;;;4.20;93.40;;;;;;4954524;28;20049;-77
2021/03/04 08:18:21;;;;;;;5.40;2.25;;;4.20;93.40;;;;;;5015881;28;20064;-77
2021/03/04 08:20:48;;;;;;;6.05;2.40;;;4.20;93.30;;;;;;5028453;28;20041;-77
2021/03/04 08:23:18;;;;;;;5.82;1.77;;;4.30;93.30;;;;;;5026412;28;20351;-77
2021/03/04 08:25:45;;;;;;;2.45;1.42;;;4.30;93.30;;;;;;5030789;28;20048;-76
2021/03/04 08:28:24;;;;;;;7.90;4.13;;;4.30;93.30;;;;;;5031702;28;20149;-77
2021/03/04 08:30:50;;;;;;;6.60;1.98;;;4.40;93.30;;;;;;5031111;28;20049;-77
2021/03/04 08:33:16;;;;;;;6.38;1.85;;;4.40;93.30;;;;;;5032171;28;20045;-76
2021/03/04 08:35:45;;;;;;;6.80;1.60;;;4.50;93.60;;;;;;5032285;28;20041;-77
2021/03/04 08:38:17;;;;;;;5.50;1.83;;;4.50;93.30;;;;;;5008845;28;20091;-76
2021/03/04 08:40:44;;;;;;;4.32;2.20;;;4.60;93.40;;;;;;5024325;28;20065;-76
2021/03/04 08:43:15;;;;;;;5.22;1.00;;;4.70;93.40;;;;;;5030906;28;20037;-77
2021/03/04 08:45:42;;;;;;;2.03;1.00;;;4.70;93.40;;;;;;5032108;28;20046;-77
2021/03/04 08:48:09;;;;;;;5.15;2.03;;;4.80;93.70;;;;;;5030650;28;20464;-77
2021/03/04 08:50:44;;;;;;;3.60;1.23;;;4.90;93.40;;;;;;5031012;28;20116;-77
2021/03/04 08:53:18;;;;;;;2.75;1.20;;;4.90;93.20;;;;;;5024923;28;20431;-77
2021/03/04 08:56:01;;;;;;;3.47;0.90;;;5.00;93.30;;;;;;5011614;28;20050;-77
2021/03/04 08:58:29;;;;;;;5.20;1.42;;;5.00;93.30;;;;;;5010166;28;20474;-77
2021/03/04 09:01:01;;;;;;;1.85;0.68;;;5.10;93.30;;;;;;5011728;28;20037;-77
2021/03/04 09:03:28;;;;;;;7.43;0.70;;;5.10;93.20;;;;;;5011810;28;20038;-77
2021/03/04 09:06:15;;;;;;;3.38;0.55;;;5.10;93.20;;;;;;5011816;28;20346;-77
2021/03/04 09:08:42;;;;;;;4.25;1.02;;;5.20;93.20;;;;;;5010695;28;20037;-77
2021/03/04 09:11:27;;;;;;;2.75;0.60;;;5.30;93.20;;;;;;5010985;28;20089;-77
2021/03/04 09:14:10;;;;;;;7.55;1.02;;;5.20;93.10;;;;;;5016997;28;20782;-77
2021/03/04 09:16:45;;;;;;;3.65;0.68;;;5.30;93.20;;;;;;5011414;28;20045;-77
2021/03/04 09:19:23;;;;;;;2.33;0.68;;;5.30;93.00;;;;;;5013466;28;20042;-77
2021/03/04 09:21:50;;;;;;;4.07;0.65;;;5.30;93.00;;;;;;5011350;28;20038;-76
2021/03/04 09:24:16;;;;;;;7.10;1.58;;;5.30;93.10;;;;;;5010173;28;20049;-77
2021/03/04 09:26:42;;;;;;;5.25;1.48;;;5.40;93.00;;;;;;5011417;28;20421;-77
2021/03/04 09:29:09;;;;;;;2.90;0.60;;;5.50;93.10;;;;;;5010904;28;20431;-76
2021/03/04 09:31:34;;;;;;;4.72;0.52;;;5.50;93.00;;;;;;5011161;28;20126;-77
2021/03/04 09:34:04;;;;;;;1.63;1.05;;;5.60;92.70;;;;;;5010757;28;20046;-77
2021/03/04 09:36:30;;;;;;;4.95;0.57;;;5.70;93.00;;;;;;5010320;28;20212;-77
2021/03/04 09:38:57;;;;;;;3.60;0.80;;;5.70;93.00;;;;;;5011826;28;20125;-77
2021/03/04 09:41:25;;;;;;;4.28;0.68;;;5.80;92.90;;;;;;5027866;28;20544;-77
2021/03/04 09:44:04;;;;;;;2.42;0.40;;;5.90;92.80;;;;;;5030223;28;20129;-77
2021/03/04 09:46:32;;;;;;;6.18;2.00;;;6.00;92.70;;;;;;5030997;28;20116;-76
2021/03/04 09:49:16;;;;;;;7.13;0.47;;;6.00;92.60;;;;;;5031202;28;20041;-77
2021/03/04 09:51:45;;;;;;;7.68;0.60;;;6.00;91.90;;;;;;5030692;28;20041;-77
2021/03/04 09:54:22;;;;;;;4.35;0.38;;;6.00;92.20;;;;;;5030075;28;20052;-76
2021/03/04 09:56:59;;;;;;;4.70;1.02;;;6.00;92.40;;;;;;5029370;28;20033;-77
2021/03/04 09:59:25;;;;;;;7.07;0.43;;;6.00;92.50;;;;;;5030815;28;20576;-77
2021/03/04 10:01:51;;;;;;;6.50;0.70;;;6.10;92.40;;;;;;5030519;28;20061;-76
2021/03/04 10:04:25;;;;;;;7.00;0.38;;;6.10;92.50;;;;;;5029269;28;20148;-77
2021/03/04 10:06:51;;;;;;;;;;;6.30;92.50;;;;;;5030185;28;20033;-77
2021/03/04 10:09:24;;;;;;;2.90;0.90;;;6.30;91.40;;;;;;5028721;28;20332;-76
2021/03/04 10:11:51;;;;;;;5.93;0.75;;;6.40;92.30;;;;;;5029460;28;20456;-77
2021/03/04 10:14:17;;;;;;;4.55;0.82;;;6.50;92.10;;;;;;5028757;28;20046;-75
2021/03/04 10:16:54;;;;;;;4.65;1.85;;;6.60;92.30;;;;;;5012553;28;20763;-77
2021/03/04 10:19:20;;;;;;;7.35;0.60;;;6.70;92.20;;;;;;5031017;28;20037;-75
2021/03/04 10:21:46;;;;;;;2.95;0.85;;;6.70;92.00;;;;;;5029304;28;20045;-75
2021/03/04 10:24:13;;;;;;;8.77;1.50;;;6.80;92.20;;;;;;5029519;28;20618;-75
2021/03/04 10:26:39;;;;;;;5.18;0.57;;;6.80;92.20;;;;;;5030367;28;20375;-75
2021/03/04 10:29:05;;;;;;;4.28;0.82;;;6.90;91.80;;;;;;5029642;28;20390;-75
2021/03/04 10:31:31;;;;;;;4.35;0.60;;;7.10;92.10;;;;;;5028745;28;20048;-75
2021/03/04 10:33:58;;;;;;;10.00;1.75;;;7.10;91.50;;;;;;5028996;28;20046;-75
2021/03/04 10:36:24;;;;;;;5.40;1.17;;;7.10;91.50;;;;;;5028581;28;20053;-75
2021/03/04 10:38:49;;;;;;;10.85;1.35;;;7.10;91.40;;;;;;5001908;28;20042;-76
2021/03/04 10:41:15;;;;;;;11.35;1.05;;;7.00;90.50;;;;;;5025736;28;20389;-75
2021/03/04 10:43:41;;;;;;;7.30;0.90;;;6.90;90.70;;;;;;5030271;28;20124;-75
2021/03/04 10:46:07;;;;;;;10.25;1.02;;;6.80;90.70;;;;;;5028191;28;20046;-75
2021/03/04 10:48:33;;;;;;;7.15;1.33;;;6.80;91.20;;;;;;5029960;28;20041;-75
2021/03/04 10:50:59;;;;;;;7.82;0.70;;;6.80;91.50;;;;;;5029805;28;20100;-75
2021/03/04 10:53:25;;;;;;;9.25;1.13;;;6.90;91.30;;;;;;5011626;28;20041;-75
2021/03/04 10:55:50;;;;;;;17.52;1.20;;;7.00;90.60;;;;;;5029858;28;20456;-75
2021/03/04 10:58:16;;;;;;;14.52;2.50;;;7.00;90.60;;;;;;5029404;28;20060;-75
2021/03/04 11:00:42;;;;;;;23.90;4.00;;;7.10;90.50;;;;;;5029710;28;20500;-74
2021/03/04 11:03:08;;;;;;;13.50;1.23;;;7.10;90.30;;;;;;5028221;28;20041;-74
2021/03/04 11:05:34;;;;;;;8.38;1.35;;;7.20;90.40;;;;;;5028558;28;20048;-75
2021/03/04 11:08:00;;;;;;;14.00;1.63;;;7.20;90.40;;;;;;5028571;28;20049;-74
2021/03/04 11:10:26;;;;;;;13.63;0.80;;;7.20;90.60;;;;;;5028943;28;20474;-75
2021/03/04 11:12:52;;;;;;;18.02;2.58;;;7.20;90.00;;;;;;5028027;28;20062;-75
2021/03/04 11:15:18;;;;;;;16.35;2.47;;;7.10;90.40;;;;;;5027357;28;20052;-74
2021/03/04 11:17:44;;;;;;;11.68;1.77;;;7.00;90.60;;;;;;5029336;28;20042;-74
2021/03/04 11:20:10;;;;;;;13.27;1.77;;;7.10;90.70;;;;;;5027816;28;20072;-75
2021/03/04 11:22:36;;;;;;;10.18;1.42;;;7.00;90.20;;;;;;5028859;28;20041;-74
2021/03/04 11:25:03;;;;;;;15.05;1.92;;;6.90;90.40;;;;;;5028351;28;20097;-75
2021/03/04 11:27:29;;;;;;;16.35;1.25;;;6.90;89.30;;;;;;5028589;28;20033;-75
2021/03/04 11:29:55;;;;;;;12.85;1.55;;;6.70;89.40;;;;;;5028805;28;20736;-75
2021/03/04 11:32:21;;;;;;;11.20;1.20;;;6.70;90.00;;;;;;5027462;28;20147;-75
2021/03/04 11:34:46;;;;;;;15.23;1.67;;;6.70;90.20;;;;;;5028131;28;20038;-75
2021/03/04 11:37:13;;;;;;;16.38;1.67;;;6.90;90.10;;;;;;5026877;28;20087;-75
2021/03/04 11:39:38;;;;;;;14.27;1.83;;;6.90;89.60;;;;;;5014797;28;20120;-75
2021/03/04 11:42:06;;;;;;;14.00;1.85;;;7.00;87.30;;;;;;5028646;28;20121;-74
2021/03/04 11:44:32;;;;;;;11.23;1.17;;;7.00;87.30;;;;;;5028517;28;20056;-75
2021/03/04 11:46:58;;;;;;;17.13;2.03;;;7.00;88.30;;;;;;5028735;28;20041;-75
2021/03/04 11:49:23;;;;;;;16.33;0.98;;;7.00;88.00;;;;;;5028354;28;20045;-75
2021/03/04 11:51:50;;;;;;;11.60;1.00;;;7.00;88.70;;;;;;5027772;28;20052;-75
2021/03/04 11:54:16;;;;;;;21.67;2.28;;;7.10;88.80;;;;;;5026764;28;20041;-74
2021/03/04 11:56:41;;;;;;;17.00;2.42;;;7.10;88.50;;;;;;5027608;28;20438;-74
2021/03/04 11:59:11;;;;;;;18.48;2.70;;;7.10;88.40;;;;;;5028355;28;20445;-74
2021/03/04 12:01:38;;;;;;;18.42;2.08;;;7.10;87.60;;;;;;5027315;28;20076;-75
2021/03/04 12:04:05;;;;;;;12.52;0.88;;;7.00;86.80;;;;;;5027276;28;20385;-75
2021/03/04 12:06:32;;;;;;;10.27;1.23;;;7.10;88.10;;;;;;5028423;28;20342;-74
2021/03/04 12:08:58;;;;;;;10.90;2.17;;;7.00;87.60;;;;;;5013839;28;20042;-75
2021/03/04 12:11:24;;;;;;;15.50;1.00;;;7.10;88.60;;;;;;5007443;28;20048;-75
2021/03/04 12:13:50;;;;;;;13.93;1.75;;;7.10;87.80;;;;;;5012969;28;20084;-75
2021/03/04 12:16:16;;;;;;;10.10;0.95;;;7.10;87.30;;;;;;5007994;28;20416;-75
2021/03/04 12:18:42;;;;;;;8.48;1.60;;;7.00;86.90;;;;;;5007806;28;20400;-75
2021/03/04 12:21:08;;;;;;;14.07;1.15;;;7.00;85.50;;;;;;5016317;28;20041;-75
2021/03/04 12:23:33;;;;;;;14.32;1.60;;;6.80;85.90;;;;;;5007483;28;20328;-75
2021/03/04 12:25:59;;;;;;;11.27;1.27;;;6.70;85.20;;;;;;5007153;28;20041;-75
2021/03/04 12:28:25;;;;;;;8.25;1.67;;;6.60;86.90;;;;;;5006936;28;20058;-75
2021/03/04 12:30:51;;;;;;;10.88;3.20;;;6.60;87.60;;;;;;5017458;28;20514;-74
2021/03/04 12:33:17;;;;;;;8.73;1.13;;;6.60;87.00;;;;;;5006959;28;20041;-74
2021/03/04 12:35:43;;;;;;;16.30;1.60;;;6.60;86.90;;;;;;5008206;28;20048;-74
2021/03/04 12:38:09;;;;;;;16.88;4.10;;;6.60;87.10;;;;;;5007106;28;20117;-74
2021/03/04 12:40:37;;;;;;;18.00;1.67;;;6.70;87.90;;;;;;5019240;28;20729;-75
2021/03/04 12:43:06;;;;;;;11.85;2.28;;;6.70;86.60;;;;;;5026686;28;20045;-75
2021/03/04 12:45:33;;;;;;;16.15;1.55;;;6.70;87.50;;;;;;5027807;28;20092;-74
2021/03/04 12:47:59;;;;;;;16.00;2.13;;;6.70;87.60;;;;;;5028064;28;20049;-74
2021/03/04 12:50:25;;;;;;;18.98;3.03;;;6.70;87.10;;;;;;5026324;28;20038;-76
2021/03/04 12:52:51;;;;;;;11.32;1.27;;;6.60;86.60;;;;;;5026993;28;20320;-74
2021/03/04 12:55:18;;;;;;;14.15;1.58;;;6.60;84.50;;;;;;5008161;28;20083;-75